sensor_id;sensor_type;location;lat;lon;timestamp;pressure;altitude;pressure_sealevel;temperature;humidity
58102;BME280;52034;51.926;6.320;2022-12-10T00:00:31;100822.75;;;-2.60;91.08
58102;BME280;52034;51.926;6.320;2022-12-10T00:01:33;100824.09;;;-2.54;91.42
58102;BME280;52034;51.926;6.320;2022-12-10T00:02:33;100819.25;;;-2.50;91.99
58102;BME280;52034;51.926;6.320;2022-12-10T00:03:35;100820.59;;;-2.44;91.63
58102;BME280;52034;51.926;6.320;2022-12-10T00:04:35;100832.44;;;-2.56;90.77
58102;BME280;52034;51.926;6.320;2022-12-10T00:05:36;100829.00;;;-2.57;91.42
58102;BME280;52034;51.926;6.320;2022-12-10T00:06:37;100833.28;;;-2.67;90.78
58102;BME280;52034;51.926;6.320;2022-12-10T00:07:37;100829.28;;;-2.76;90.37
58102;BME280;52034;51.926;6.320;2022-12-10T00:08:38;100823.84;;;-2.69;90.04
58102;BME280;52034;51.926;6.320;2022-12-10T00:09:39;100834.28;;;-2.65;89.85
58102;BME280;52034;51.926;6.320;2022-12-10T00:10:39;100825.31;;;-2.60;90.64
58102;BME280;52034;51.926;6.320;2022-12-10T00:11:41;100839.72;;;-2.50;90.34
58102;BME280;52034;51.926;6.320;2022-12-10T00:12:41;100830.56;;;-2.47;90.63
58102;BME280;52034;51.926;6.320;2022-12-10T00:13:43;100829.25;;;-2.42;90.19
58102;BME280;52034;51.926;6.320;2022-12-10T00:14:43;100823.94;;;-2.45;90.48
58102;BME280;52034;51.926;6.320;2022-12-10T00:15:44;100825.47;;;-2.47;90.34
58102;BME280;52034;51.926;6.320;2022-12-10T00:16:44;100820.13;;;-2.50;89.35
58102;BME280;52034;51.926;6.320;2022-12-10T00:17:44;100824.59;;;-2.47;89.53
58102;BME280;52034;51.926;6.320;2022-12-10T00:18:45;100821.91;;;-2.49;89.85
58102;BME280;52034;51.926;6.320;2022-12-10T00:19:45;100823.44;;;-2.51;90.50
58102;BME280;52034;51.926;6.320;2022-12-10T00:20:46;100828.78;;;-2.60;90.30
58102;BME280;52034;51.926;6.320;2022-12-10T00:21:46;100821.81;;;-2.50;90.45
58102;BME280;52034;51.926;6.320;2022-12-10T00:22:46;100824.75;;;-2.56;89.82
58102;BME280;52034;51.926;6.320;2022-12-10T00:23:47;100825.25;;;-2.50;90.29
58102;BME280;52034;51.926;6.320;2022-12-10T00:24:48;100833.69;;;-2.51;90.29
58102;BME280;52034;51.926;6.320;2022-12-10T00:25:48;100820.91;;;-2.51;90.29
58102;BME280;52034;51.926;6.320;2022-12-10T00:26:48;100826.38;;;-2.46;90.10
58102;BME280;52034;51.926;6.320;2022-12-10T00:27:49;100829.59;;;-2.49;90.10
58102;BME280;52034;51.926;6.320;2022-12-10T00:28:50;100826.06;;;-2.61;90.40
58102;BME280;52034;51.926;6.320;2022-12-10T00:29:51;100832.94;;;-2.72;89.62
58102;BME280;52034;51.926;6.320;2022-12-10T00:30:51;100821.53;;;-3.10;89.25
58102;BME280;52034;51.926;6.320;2022-12-10T00:31:51;100834.03;;;-3.35;91.05
58102;BME280;52034;51.926;6.320;2022-12-10T00:32:52;100835.88;;;-3.44;91.94
58102;BME280;52034;51.926;6.320;2022-12-10T00:33:54;100839.91;;;-3.36;92.72
58102;BME280;52034;51.926;6.320;2022-12-10T00:34:54;100833.91;;;-3.37;92.19
58102;BME280;52034;51.926;6.320;2022-12-10T00:35:55;100827.94;;;-3.37;92.03
58102;BME280;52034;51.926;6.320;2022-12-10T00:36:55;100834.50;;;-3.18;91.35
58102;BME280;52034;51.926;6.320;2022-12-10T00:37:56;100835.88;;;-3.12;91.06
58102;BME280;52034;51.926;6.320;2022-12-10T00:38:56;100831.88;;;-3.08;90.60
58102;BME280;52034;51.926;6.320;2022-12-10T00:39:57;100832.16;;;-2.93;91.08
58102;BME280;52034;51.926;6.320;2022-12-10T00:40:57;100831.34;;;-2.82;91.05
58102;BME280;52034;51.926;6.320;2022-12-10T00:41:57;100836.03;;;-2.76;90.71
58102;BME280;52034;51.926;6.320;2022-12-10T00:42:59;100837.59;;;-2.78;89.99
58102;BME280;52034;51.926;6.320;2022-12-10T00:44:00;100841.72;;;-2.91;90.17
58102;BME280;52034;51.926;6.320;2022-12-10T00:45:00;100839.31;;;-2.89;90.30
58102;BME280;52034;51.926;6.320;2022-12-10T00:46:01;100844.59;;;-2.98;89.53
58102;BME280;52034;51.926;6.320;2022-12-10T00:47:01;100834.25;;;-2.99;89.93
58102;BME280;52034;51.926;6.320;2022-12-10T00:48:01;100842.69;;;-3.00;89.53
58102;BME280;52034;51.926;6.320;2022-12-10T00:49:02;100836.44;;;-3.04;89.09
58102;BME280;52034;51.926;6.320;2022-12-10T00:50:04;100835.50;;;-2.94;90.20
58102;BME280;52034;51.926;6.320;2022-12-10T00:51:11;100844.47;;;-2.99;90.19
58102;BME280;52034;51.926;6.320;2022-12-10T00:52:12;100845.91;;;-3.03;90.32
58102;BME280;52034;51.926;6.320;2022-12-10T00:53:12;100841.22;;;-3.09;90.29
58102;BME280;52034;51.926;6.320;2022-12-10T00:54:12;100839.19;;;-3.13;90.47
58102;BME280;52034;51.926;6.320;2022-12-10T00:55:13;100843.22;;;-3.05;90.89
58102;BME280;52034;51.926;6.320;2022-12-10T00:56:16;100833.84;;;-2.94;90.87
58102;BME280;52034;51.926;6.320;2022-12-10T00:57:17;100833.28;;;-2.90;90.68
58102;BME280;52034;51.926;6.320;2022-12-10T00:58:18;100838.00;;;-2.84;90.70
58102;BME280;52034;51.926;6.320;2022-12-10T00:59:18;100838.78;;;-2.85;89.80
58102;BME280;52034;51.926;6.320;2022-12-10T01:00:19;100840.97;;;-2.90;90.10
58102;BME280;52034;51.926;6.320;2022-12-10T01:01:22;100844.81;;;-2.95;90.10
58102;BME280;52034;51.926;6.320;2022-12-10T01:02:24;100847.97;;;-3.09;90.49
58102;BME280;52034;51.926;6.320;2022-12-10T01:03:25;100839.25;;;-3.33;90.90
58102;BME280;52034;51.926;6.320;2022-12-10T01:04:26;100845.41;;;-3.31;90.52
58102;BME280;52034;51.926;6.320;2022-12-10T01:05:26;100848.22;;;-3.39;90.92
58102;BME280;52034;51.926;6.320;2022-12-10T01:06:32;100843.53;;;-3.44;91.08
58102;BME280;52034;51.926;6.320;2022-12-10T01:07:32;100845.47;;;-3.52;91.11
58102;BME280;52034;51.926;6.320;2022-12-10T01:08:33;100848.47;;;-3.36;92.36
58102;BME280;52034;51.926;6.320;2022-12-10T01:09:33;100852.41;;;-3.29;92.26
58102;BME280;52034;51.926;6.320;2022-12-10T01:10:34;100852.63;;;-3.15;92.23
58102;BME280;52034;51.926;6.320;2022-12-10T01:11:37;100852.88;;;-3.23;90.67
58102;BME280;52034;51.926;6.320;2022-12-10T01:12:38;100848.16;;;-3.18;90.71
58102;BME280;52034;51.926;6.320;2022-12-10T01:13:40;100853.25;;;-3.18;90.23
58102;BME280;52034;51.926;6.320;2022-12-10T01:14:40;100855.00;;;-3.39;89.48
58102;BME280;52034;51.926;6.320;2022-12-10T01:15:40;100850.59;;;-3.20;91.54
58102;BME280;52034;51.926;6.320;2022-12-10T01:16:41;100856.78;;;-3.06;90.58
58102;BME280;52034;51.926;6.320;2022-12-10T01:17:41;100857.91;;;-3.02;90.70
58102;BME280;52034;51.926;6.320;2022-12-10T01:18:42;100850.41;;;-3.11;89.93
58102;BME280;52034;51.926;6.320;2022-12-10T01:19:42;100854.78;;;-3.20;90.18
58102;BME280;52034;51.926;6.320;2022-12-10T01:20:42;100859.78;;;-3.22;91.28
58102;BME280;52034;51.926;6.320;2022-12-10T01:21:43;100858.09;;;-3.43;92.02
58102;BME280;52034;51.926;6.320;2022-12-10T01:22:43;100858.94;;;-3.32;92.12
58102;BME280;52034;51.926;6.320;2022-12-10T01:23:45;100848.91;;;-3.19;92.26
58102;BME280;52034;51.926;6.320;2022-12-10T01:24:46;100856.13;;;-3.03;91.41
58102;BME280;52034;51.926;6.320;2022-12-10T01:25:47;100865.59;;;-3.02;90.31
58102;BME280;52034;51.926;6.320;2022-12-10T01:26:47;100859.75;;;-3.11;90.03
58102;BME280;52034;51.926;6.320;2022-12-10T01:27:47;100857.25;;;-2.99;90.18
58102;BME280;52034;51.926;6.320;2022-12-10T01:28:48;100854.41;;;-2.92;90.41
58102;BME280;52034;51.926;6.320;2022-12-10T01:29:49;100855.22;;;-2.81;90.23
58102;BME280;52034;51.926;6.320;2022-12-10T01:30:49;100860.72;;;-2.77;90.12
58102;BME280;52034;51.926;6.320;2022-12-10T01:31:51;100864.25;;;-2.75;90.46
58102;BME280;52034;51.926;6.320;2022-12-10T01:32:52;100850.53;;;-2.87;90.47
58102;BME280;52034;51.926;6.320;2022-12-10T01:33:53;100860.06;;;-2.74;91.02
58102;BME280;52034;51.926;6.320;2022-12-10T01:34:53;100857.63;;;-2.73;90.76
58102;BME280;52034;51.926;6.320;2022-12-10T01:35:54;100861.44;;;-2.67;91.07
58102;BME280;52034;51.926;6.320;2022-12-10T01:36:54;100865.69;;;-2.56;91.02
58102;BME280;52034;51.926;6.320;2022-12-10T01:37:54;100864.25;;;-2.53;91.47
58102;BME280;52034;51.926;6.320;2022-12-10T01:38:55;100866.16;;;-2.50;91.10
58102;BME280;52034;51.926;6.320;2022-12-10T01:39:56;100866.38;;;-2.47;90.80
58102;BME280;52034;51.926;6.320;2022-12-10T01:40:56;100865.28;;;-2.50;90.73
58102;BME280;52034;51.926;6.320;2022-12-10T01:41:59;100866.16;;;-2.50;91.02
58102;BME280;52034;51.926;6.320;2022-12-10T01:43:00;100865.69;;;-2.56;90.90
58102;BME280;52034;51.926;6.320;2022-12-10T01:45:11;100864.91;;;-2.77;91.38
58102;BME280;52034;51.926;6.320;2022-12-10T01:46:12;100863.31;;;-2.87;91.77
58102;BME280;52034;51.926;6.320;2022-12-10T01:47:12;100861.13;;;-3.05;91.10
58102;BME280;52034;51.926;6.320;2022-12-10T01:48:13;100870.81;;;-3.00;91.78
58102;BME280;52034;51.926;6.320;2022-12-10T01:49:22;100869.78;;;-3.03;91.78
58102;BME280;52034;51.926;6.320;2022-12-10T01:50:22;100871.47;;;-3.03;91.47
58102;BME280;52034;51.926;6.320;2022-12-10T01:51:25;100870.72;;;-3.12;91.40
58102;BME280;52034;51.926;6.320;2022-12-10T01:52:26;100867.19;;;-3.14;91.90
58102;BME280;52034;51.926;6.320;2022-12-10T01:53:28;100870.56;;;-3.04;92.06
58102;BME280;52034;51.926;6.320;2022-12-10T01:54:32;100871.47;;;-3.03;91.69
58102;BME280;52034;51.926;6.320;2022-12-10T01:55:49;100877.63;;;-3.11;91.45
58102;BME280;52034;51.926;6.320;2022-12-10T01:57:04;100871.47;;;-3.03;91.65
58102;BME280;52034;51.926;6.320;2022-12-10T01:58:06;100875.13;;;-2.89;92.01
58102;BME280;52034;51.926;6.320;2022-12-10T01:59:06;100876.59;;;-2.81;90.59
58102;BME280;52034;51.926;6.320;2022-12-10T02:00:07;100874.75;;;-2.72;90.98
58102;BME280;52034;51.926;6.320;2022-12-10T02:01:40;100872.91;;;-2.62;90.27
58102;BME280;52034;51.926;6.320;2022-12-10T02:02:56;100866.66;;;-2.66;90.55
58102;BME280;52034;51.926;6.320;2022-12-10T02:04:11;100871.28;;;-2.72;90.12
58102;BME280;52034;51.926;6.320;2022-12-10T02:08:48;100878.56;;;-2.66;90.18
58102;BME280;52034;51.926;6.320;2022-12-10T02:11:09;100877.72;;;-2.55;90.41
58102;BME280;52034;51.926;6.320;2022-12-10T02:12:40;100876.94;;;-2.54;90.92
58102;BME280;52034;51.926;6.320;2022-12-10T02:13:55;100882.38;;;-2.49;91.26
58102;BME280;52034;51.926;6.320;2022-12-10T02:15:06;100873.94;;;-2.48;91.09
58102;BME280;52034;51.926;6.320;2022-12-10T02:16:14;100876.88;;;-2.44;91.85
58102;BME280;52034;51.926;6.320;2022-12-10T02:17:19;100875.19;;;-2.43;91.49
58102;BME280;52034;51.926;6.320;2022-12-10T02:18:25;100875.03;;;-2.34;91.13
58102;BME280;52034;51.926;6.320;2022-12-10T02:20:59;100874.59;;;-2.29;90.80
58102;BME280;52034;51.926;6.320;2022-12-10T02:22:01;100873.16;;;-2.25;91.01
58102;BME280;52034;51.926;6.320;2022-12-10T02:24:14;100864.47;;;-2.27;91.19
58102;BME280;52034;51.926;6.320;2022-12-10T02:25:17;100876.16;;;-2.19;91.14
58102;BME280;52034;51.926;6.320;2022-12-10T02:26:40;100871.50;;;-2.13;90.81
58102;BME280;52034;51.926;6.320;2022-12-10T02:29:55;100873.63;;;-2.07;91.05
58102;BME280;52034;51.926;6.320;2022-12-10T02:30:59;100874.28;;;-2.10;91.45
58102;BME280;52034;51.926;6.320;2022-12-10T02:32:11;100875.44;;;-2.06;90.99
58102;BME280;52034;51.926;6.320;2022-12-10T02:33:14;100869.06;;;-2.11;91.93
58102;BME280;52034;51.926;6.320;2022-12-10T02:34:18;100870.50;;;-2.15;91.56
58102;BME280;52034;51.926;6.320;2022-12-10T02:35:23;100875.06;;;-2.11;92.23
58102;BME280;52034;51.926;6.320;2022-12-10T02:36:27;100870.19;;;-2.08;91.76
58102;BME280;52034;51.926;6.320;2022-12-10T02:37:31;100856.72;;;-2.17;92.19
58102;BME280;52034;51.926;6.320;2022-12-10T02:38:36;100859.59;;;-2.12;92.01
58102;BME280;52034;51.926;6.320;2022-12-10T02:39:43;100864.81;;;-2.11;92.02
58102;BME280;52034;51.926;6.320;2022-12-10T02:40:48;100869.19;;;-2.10;92.13
58102;BME280;52034;51.926;6.320;2022-12-10T02:41:52;100864.94;;;-2.09;92.86
58102;BME280;52034;51.926;6.320;2022-12-10T02:42:53;100869.19;;;-2.10;92.13
58102;BME280;52034;51.926;6.320;2022-12-10T02:43:56;100866.63;;;-2.10;92.79
58102;BME280;52034;51.926;6.320;2022-12-10T02:44:59;100869.88;;;-2.00;92.54
58102;BME280;52034;51.926;6.320;2022-12-10T02:46:02;100867.84;;;-2.05;91.81
58102;BME280;52034;51.926;6.320;2022-12-10T02:47:05;100857.41;;;-2.08;92.61
58102;BME280;52034;51.926;6.320;2022-12-10T02:48:11;100866.16;;;-2.16;92.45
58102;BME280;52034;51.926;6.320;2022-12-10T02:49:16;100868.97;;;-2.13;92.38
58102;BME280;52034;51.926;6.320;2022-12-10T02:50:19;100856.38;;;-2.10;92.74
58102;BME280;52034;51.926;6.320;2022-12-10T02:51:22;100864.94;;;-2.09;92.29
58102;BME280;52034;51.926;6.320;2022-12-10T02:52:23;100857.41;;;-2.08;92.73
58102;BME280;52034;51.926;6.320;2022-12-10T02:53:26;100866.31;;;-2.03;92.64
58102;BME280;52034;51.926;6.320;2022-12-10T02:54:48;100862.94;;;-2.02;91.90
58102;BME280;52034;51.926;6.320;2022-12-10T02:56:22;100860.19;;;-2.05;91.73
58102;BME280;52034;51.926;6.320;2022-12-10T03:00:11;100863.50;;;-2.06;91.10
58102;BME280;52034;51.926;6.320;2022-12-10T03:01:32;100860.72;;;-2.09;91.82
58102;BME280;52034;51.926;6.320;2022-12-10T03:06:43;100869.75;;;-2.02;91.45
58102;BME280;52034;51.926;6.320;2022-12-10T03:07:58;100860.63;;;-2.10;91.19
58102;BME280;52034;51.926;6.320;2022-12-10T03:09:04;100867.63;;;-2.08;91.34
58102;BME280;52034;51.926;6.320;2022-12-10T03:10:23;100867.16;;;-2.14;91.16
58102;BME280;52034;51.926;6.320;2022-12-10T03:11:25;100863.28;;;-2.09;91.57
58102;BME280;52034;51.926;6.320;2022-12-10T03:12:55;100868.41;;;-2.09;91.10
58102;BME280;52034;51.926;6.320;2022-12-10T03:15:03;100869.19;;;-2.10;91.38
58102;BME280;52034;51.926;6.320;2022-12-10T03:16:04;100871.16;;;-2.17;90.67
58102;BME280;52034;51.926;6.320;2022-12-10T03:17:05;100859.56;;;-2.24;90.79
58102;BME280;52034;51.926;6.320;2022-12-10T03:18:07;100869.81;;;-2.24;91.10
58102;BME280;52034;51.926;6.320;2022-12-10T03:19:16;100865.22;;;-2.28;91.02
58102;BME280;52034;51.926;6.320;2022-12-10T03:20:18;100861.69;;;-2.30;90.90
58102;BME280;52034;51.926;6.320;2022-12-10T03:21:19;100861.53;;;-2.32;91.18
58102;BME280;52034;51.926;6.320;2022-12-10T03:22:20;100873.44;;;-2.32;90.86
58102;BME280;52034;51.926;6.320;2022-12-10T03:23:21;100875.03;;;-2.23;91.65
58102;BME280;52034;51.926;6.320;2022-12-10T03:24:22;100869.81;;;-2.24;90.81
58102;BME280;52034;51.926;6.320;2022-12-10T03:25:24;100862.00;;;-2.26;90.60
58102;BME280;52034;51.926;6.320;2022-12-10T03:26:27;100863.72;;;-2.14;91.49
58102;BME280;52034;51.926;6.320;2022-12-10T03:27:29;100863.75;;;-2.03;91.43
58102;BME280;52034;51.926;6.320;2022-12-10T03:28:32;100864.19;;;-1.96;92.07
58102;BME280;52034;51.926;6.320;2022-12-10T03:29:44;100858.63;;;-1.79;91.45
58102;BME280;52034;51.926;6.320;2022-12-10T03:30:46;100847.97;;;-1.73;91.95
58102;BME280;52034;51.926;6.320;2022-12-10T03:31:49;100856.09;;;-1.67;90.90
58102;BME280;52034;51.926;6.320;2022-12-10T03:32:51;100854.19;;;-1.81;90.91
58102;BME280;52034;51.926;6.320;2022-12-10T03:33:52;100851.16;;;-2.11;91.61
58102;BME280;52034;51.926;6.320;2022-12-10T03:34:54;100868.97;;;-2.13;91.44
58102;BME280;52034;51.926;6.320;2022-12-10T03:35:56;100852.72;;;-2.02;92.50
58102;BME280;52034;51.926;6.320;2022-12-10T03:36:57;100854.63;;;-1.99;91.68
58102;BME280;52034;51.926;6.320;2022-12-10T03:37:59;100867.34;;;-1.77;92.08
58102;BME280;52034;51.926;6.320;2022-12-10T03:39:00;100870.09;;;-1.86;91.14
58102;BME280;52034;51.926;6.320;2022-12-10T03:40:02;100870.09;;;-1.97;91.53
58102;BME280;52034;51.926;6.320;2022-12-10T03:41:03;100870.75;;;-2.00;92.10
58102;BME280;52034;51.926;6.320;2022-12-10T03:42:05;100866.53;;;-1.99;91.78
58102;BME280;52034;51.926;6.320;2022-12-10T03:43:06;100871.66;;;-1.99;91.77
58102;BME280;52034;51.926;6.320;2022-12-10T03:44:06;100871.84;;;-2.08;91.38
58102;BME280;52034;51.926;6.320;2022-12-10T03:45:06;100867.16;;;-2.14;91.29
58102;BME280;52034;51.926;6.320;2022-12-10T03:46:07;100867.06;;;-2.15;92.07
58102;BME280;52034;51.926;6.320;2022-12-10T03:47:12;100869.03;;;-2.23;91.77
58102;BME280;52034;51.926;6.320;2022-12-10T03:48:13;100867.50;;;-2.21;92.30
58102;BME280;52034;51.926;6.320;2022-12-10T03:49:13;100865.81;;;-2.21;92.31
58102;BME280;52034;51.926;6.320;2022-12-10T03:50:13;100868.47;;;-2.19;91.87
58102;BME280;52034;51.926;6.320;2022-12-10T03:51:14;100866.69;;;-2.20;92.35
58102;BME280;52034;51.926;6.320;2022-12-10T03:52:15;100864.28;;;-2.19;92.06
58102;BME280;52034;51.926;6.320;2022-12-10T03:53:15;100859.63;;;-2.00;92.37
58102;BME280;52034;51.926;6.320;2022-12-10T03:54:16;100852.31;;;-1.96;92.91
58102;BME280;52034;51.926;6.320;2022-12-10T03:55:16;100853.75;;;-1.76;92.57
58102;BME280;52034;51.926;6.320;2022-12-10T03:56:18;100847.88;;;-1.87;91.87
58102;BME280;52034;51.926;6.320;2022-12-10T03:57:18;100857.19;;;-1.87;91.76
58102;BME280;52034;51.926;6.320;2022-12-10T03:58:19;100859.06;;;-1.96;91.09
58102;BME280;52034;51.926;6.320;2022-12-10T03:59:19;100862.06;;;-2.02;91.92
58102;BME280;52034;51.926;6.320;2022-12-10T04:00:19;100866.41;;;-2.13;91.05
58102;BME280;52034;51.926;6.320;2022-12-10T04:01:20;100859.97;;;-2.08;91.95
58102;BME280;52034;51.926;6.320;2022-12-10T04:02:20;100869.66;;;-2.04;92.26
58102;BME280;52034;51.926;6.320;2022-12-10T04:03:21;100861.38;;;-2.11;92.00
58102;BME280;52034;51.926;6.320;2022-12-10T04:04:21;100865.63;;;-2.00;91.98
58102;BME280;52034;51.926;6.320;2022-12-10T04:05:21;100862.75;;;-2.05;92.35
58102;BME280;52034;51.926;6.320;2022-12-10T04:06:22;100869.66;;;-2.04;92.02
58102;BME280;52034;51.926;6.320;2022-12-10T04:07:23;100873.84;;;-2.04;91.74
58102;BME280;52034;51.926;6.320;2022-12-10T04:08:24;100863.63;;;-2.04;91.78
58102;BME280;52034;51.926;6.320;2022-12-10T04:09:24;100868.47;;;-2.19;91.57
58102;BME280;52034;51.926;6.320;2022-12-10T04:10:24;100869.34;;;-2.30;90.84
58102;BME280;52034;51.926;6.320;2022-12-10T04:11:25;100866.44;;;-2.35;91.41
58102;BME280;52034;51.926;6.320;2022-12-10T04:12:26;100873.22;;;-2.36;91.22
58102;BME280;52034;51.926;6.320;2022-12-10T04:13:26;100866.22;;;-2.38;91.61
58102;BME280;52034;51.926;6.320;2022-12-10T04:14:45;100878.19;;;-2.49;91.48
58102;BME280;52034;51.926;6.320;2022-12-10T04:16:04;100870.81;;;-2.56;92.17
58102;BME280;52034;51.926;6.320;2022-12-10T04:17:23;100873.25;;;-2.58;92.32
58102;BME280;52034;51.926;6.320;2022-12-10T04:18:24;100871.34;;;-2.60;92.38
58102;BME280;52034;51.926;6.320;2022-12-10T04:19:24;100868.56;;;-2.63;91.47
58102;BME280;52034;51.926;6.320;2022-12-10T04:20:24;100869.22;;;-2.66;91.50
58102;BME280;52034;51.926;6.320;2022-12-10T04:21:45;100871.22;;;-2.62;91.62
58102;BME280;52034;51.926;6.320;2022-12-10T04:23:04;100871.94;;;-2.53;91.29
58102;BME280;52034;51.926;6.320;2022-12-10T04:24:25;100877.72;;;-2.55;91.21
58102;BME280;52034;51.926;6.320;2022-12-10T04:25:43;100874.94;;;-2.58;91.14
58102;BME280;52034;51.926;6.320;2022-12-10T04:27:10;100879.94;;;-2.60;90.41
58102;BME280;52034;51.926;6.320;2022-12-10T04:28:11;100878.41;;;-2.68;89.54
58102;BME280;52034;51.926;6.320;2022-12-10T04:29:11;100878.72;;;-2.75;91.12
58102;BME280;52034;51.926;6.320;2022-12-10T04:30:12;100885.97;;;-2.70;91.26
58102;BME280;52034;51.926;6.320;2022-12-10T04:31:12;100884.06;;;-2.72;90.98
58102;BME280;52034;51.926;6.320;2022-12-10T04:32:13;100883.19;;;-2.73;91.21
58102;BME280;52034;51.926;6.320;2022-12-10T04:33:14;100872.13;;;-2.83;91.58
58102;BME280;52034;51.926;6.320;2022-12-10T04:34:14;100880.88;;;-2.92;91.61
58102;BME280;52034;51.926;6.320;2022-12-10T04:35:14;100879.25;;;-3.02;91.70
58102;BME280;52034;51.926;6.320;2022-12-10T04:36:15;100882.50;;;-3.14;91.38
58102;BME280;52034;51.926;6.320;2022-12-10T04:37:16;100879.81;;;-3.16;91.15
58102;BME280;52034;51.926;6.320;2022-12-10T04:38:17;100876.25;;;-3.18;90.52
58102;BME280;52034;51.926;6.320;2022-12-10T04:39:18;100878.81;;;-3.18;91.33
58102;BME280;52034;51.926;6.320;2022-12-10T04:40:18;100880.59;;;-3.17;92.04
58102;BME280;52034;51.926;6.320;2022-12-10T04:41:19;100880.84;;;-3.14;91.92
58102;BME280;52034;51.926;6.320;2022-12-10T04:42:21;100879.22;;;-3.24;92.38
58102;BME280;52034;51.926;6.320;2022-12-10T04:43:21;100886.38;;;-3.20;91.94
58102;BME280;52034;51.926;6.320;2022-12-10T04:44:22;100882.63;;;-3.13;91.71
58102;BME280;52034;51.926;6.320;2022-12-10T04:45:22;100887.25;;;-3.19;90.97
58102;BME280;52034;51.926;6.320;2022-12-10T04:46:22;100882.78;;;-3.22;90.74
58102;BME280;52034;51.926;6.320;2022-12-10T04:47:23;100894.41;;;-3.25;89.95
58102;BME280;52034;51.926;6.320;2022-12-10T04:48:23;100888.00;;;-3.20;90.36
58102;BME280;52034;51.926;6.320;2022-12-10T04:49:24;100891.09;;;-3.24;90.88
58102;BME280;52034;51.926;6.320;2022-12-10T04:50:24;100890.41;;;-3.44;90.89
58102;BME280;52034;51.926;6.320;2022-12-10T04:51:25;100892.03;;;-3.34;91.57
58102;BME280;52034;51.926;6.320;2022-12-10T04:52:25;100888.81;;;-3.31;91.19
58102;BME280;52034;51.926;6.320;2022-12-10T04:53:25;100896.06;;;-3.15;91.89
58102;BME280;52034;51.926;6.320;2022-12-10T04:54:27;100894.88;;;-3.09;91.35
58102;BME280;52034;51.926;6.320;2022-12-10T04:55:27;100891.25;;;-3.00;91.99
58102;BME280;52034;51.926;6.320;2022-12-10T04:56:28;100892.50;;;-2.95;91.66
58102;BME280;52034;51.926;6.320;2022-12-10T04:57:28;100890.69;;;-2.86;91.80
58102;BME280;52034;51.926;6.320;2022-12-10T04:58:29;100886.81;;;-2.81;91.60
58102;BME280;52034;51.926;6.320;2022-12-10T04:59:30;100890.84;;;-2.95;91.29
58102;BME280;52034;51.926;6.320;2022-12-10T05:00:31;100886.88;;;-2.91;91.69
58102;BME280;52034;51.926;6.320;2022-12-10T05:01:32;100888.53;;;-2.92;91.64
58102;BME280;52034;51.926;6.320;2022-12-10T05:02:32;100893.50;;;-2.93;92.13
58102;BME280;52034;51.926;6.320;2022-12-10T05:03:33;100886.75;;;-2.93;91.40
58102;BME280;52034;51.926;6.320;2022-12-10T05:04:34;100889.06;;;-2.96;91.45
58102;BME280;52034;51.926;6.320;2022-12-10T05:05:35;100888.53;;;-2.92;91.69
58102;BME280;52034;51.926;6.320;2022-12-10T05:06:35;100891.97;;;-2.91;91.88
58102;BME280;52034;51.926;6.320;2022-12-10T05:07:35;100893.34;;;-2.84;92.12
58102;BME280;52034;51.926;6.320;2022-12-10T05:08:37;100889.25;;;-2.82;91.95
58102;BME280;52034;51.926;6.320;2022-12-10T05:09:37;100888.06;;;-2.76;91.88
58102;BME280;52034;51.926;6.320;2022-12-10T05:10:38;100891.09;;;-2.70;92.28
58102;BME280;52034;51.926;6.320;2022-12-10T05:11:39;100890.19;;;-2.48;92.35
58102;BME280;52034;51.926;6.320;2022-12-10T05:12:39;100889.41;;;-2.47;91.78
58102;BME280;52034;51.926;6.320;2022-12-10T05:13:40;100888.91;;;-2.65;91.20
58102;BME280;52034;51.926;6.320;2022-12-10T05:14:41;100899.03;;;-2.66;91.21
58102;BME280;52034;51.926;6.320;2022-12-10T05:15:41;100895.56;;;-2.67;91.53
58102;BME280;52034;51.926;6.320;2022-12-10T05:16:42;100893.19;;;-2.76;90.80
58102;BME280;52034;51.926;6.320;2022-12-10T05:17:43;100900.56;;;-2.69;91.84
58102;BME280;52034;51.926;6.320;2022-12-10T05:18:44;100892.94;;;-2.79;91.73
58102;BME280;52034;51.926;6.320;2022-12-10T05:19:44;100891.94;;;-2.81;91.51
58102;BME280;52034;51.926;6.320;2022-12-10T05:20:44;100897.50;;;-2.75;91.41
58102;BME280;52034;51.926;6.320;2022-12-10T05:21:45;100896.94;;;-2.82;91.24
58102;BME280;52034;51.926;6.320;2022-12-10T05:23:03;100886.31;;;-2.87;91.67
58102;BME280;52034;51.926;6.320;2022-12-10T05:24:23;100890.28;;;-2.58;92.09
58102;BME280;52034;51.926;6.320;2022-12-10T05:25:23;100892.88;;;-2.46;91.88
58102;BME280;52034;51.926;6.320;2022-12-10T05:26:23;100891.19;;;-2.46;91.90
58102;BME280;52034;51.926;6.320;2022-12-10T05:27:24;100890.78;;;-2.40;91.67
58102;BME280;52034;51.926;6.320;2022-12-10T05:28:25;100892.50;;;-2.51;91.24
58102;BME280;52034;51.926;6.320;2022-12-10T05:29:26;100884.63;;;-2.54;91.30
58102;BME280;52034;51.926;6.320;2022-12-10T05:30:26;100893.06;;;-2.55;90.95
58102;BME280;52034;51.926;6.320;2022-12-10T05:31:29;100893.59;;;-2.59;91.29
58102;BME280;52034;51.926;6.320;2022-12-10T05:32:29;100898.75;;;-2.70;91.33
58102;BME280;52034;51.926;6.320;2022-12-10T05:33:30;100890.81;;;-2.62;92.23
58102;BME280;52034;51.926;6.320;2022-12-10T05:34:31;100902.03;;;-2.60;91.88
58102;BME280;52034;51.926;6.320;2022-12-10T05:35:31;100891.03;;;-2.59;92.00
58102;BME280;52034;51.926;6.320;2022-12-10T05:36:32;100899.34;;;-2.62;91.91
58102;BME280;52034;51.926;6.320;2022-12-10T05:37:32;100895.66;;;-2.65;91.66
58102;BME280;52034;51.926;6.320;2022-12-10T05:38:34;100900.22;;;-2.73;91.64
58102;BME280;52034;51.926;6.320;2022-12-10T05:39:34;100901.91;;;-2.62;91.32
58102;BME280;52034;51.926;6.320;2022-12-10T05:40:36;100899.97;;;-2.54;91.59
58102;BME280;52034;51.926;6.320;2022-12-10T05:41:38;100906.81;;;-2.65;91.62
58102;BME280;52034;51.926;6.320;2022-12-10T05:42:38;100899.91;;;-2.66;91.39
58102;BME280;52034;51.926;6.320;2022-12-10T05:43:39;100894.22;;;-2.84;91.01
58102;BME280;52034;51.926;6.320;2022-12-10T05:44:39;100891.31;;;-2.89;91.39
58102;BME280;52034;51.926;6.320;2022-12-10T05:45:40;100896.56;;;-2.87;91.61
58102;BME280;52034;51.926;6.320;2022-12-10T05:46:40;100895.78;;;-2.86;91.43
58102;BME280;52034;51.926;6.320;2022-12-10T05:47:40;100899.22;;;-2.86;91.67